Time;durP1;ratioP1;P1;durP2;ratioP2;P2;SDS_P1;SDS_P2;PMS_P1;PMS_P2;Temp;Humidity;BMP_temperature;BMP_pressure;BME280_temperature;BME280_humidity;BME280_pressure;Samples;Min_cycle;Max_cycle;Signal;HPM_P1;HPM_P2
2022/06/28 00:00:10;;;;;;;18.52;11.23;;;;;;;-141.50;100.00;63355.56;5062529;28;20060;-85
2022/06/28 00:02:36;;;;;;;16.00;11.30;;;;;;;-141.50;100.00;63355.56;5086131;28;20048;-85
2022/06/28 00:05:06;;;;;;;17.13;11.77;;;;;;;-141.50;100.00;63355.56;5085678;28;20052;-83
2022/06/28 00:07:32;;;;;;;17.73;11.95;;;;;;;-141.50;100.00;63355.56;5065869;28;20484;-84
2022/06/28 00:09:59;;;;;;;20.02;12.38;;;;;;;-141.50;100.00;63355.56;5084230;28;20048;-84
2022/06/28 00:12:26;;;;;;;16.80;12.50;;;;;;;-141.50;100.00;63355.56;5050719;28;20203;-85
2022/06/28 00:17:38;;;;;;;23.85;14.13;;;;;;;-141.50;100.00;63355.56;5087908;28;20067;-85
2022/06/28 00:20:05;;;;;;;19.02;13.57;;;;;;;-141.50;100.00;63355.56;5067083;28;20401;-83
2022/06/28 00:22:32;;;;;;;15.48;12.35;;;;;;;-141.50;100.00;63355.56;5062586;28;20083;-85
2022/06/28 00:24:59;;;;;;;22.80;13.82;;;;;;;-141.50;100.00;63355.56;5082702;28;20048;-84
2022/06/28 00:27:25;;;;;;;19.92;13.57;;;;;;;-141.50;100.00;63355.56;5063487;28;20160;-84
2022/06/28 00:29:52;;;;;;;21.00;12.98;;;;;;;-141.50;100.00;63355.56;5062945;28;20515;-86
2022/06/28 00:32:18;;;;;;;26.42;14.65;;;;;;;-141.50;100.00;63355.56;5077484;28;20057;-85
2022/06/28 00:34:47;;;;;;;25.00;16.02;;;;;;;-141.50;100.00;63355.56;5064621;28;20066;-85
2022/06/28 00:37:14;;;;;;;22.90;15.75;;;;;;;-141.50;100.00;63355.56;5053510;28;20102;-85
2022/06/28 00:39:41;;;;;;;27.40;15.63;;;;;;;-141.50;100.00;63355.56;5074167;28;20132;-83
2022/06/28 00:42:09;;;;;;;28.70;16.15;;;;;;;-141.50;100.00;63355.56;5057664;28;20056;-84
2022/06/28 00:44:36;;;;;;;22.75;15.82;;;;;;;-141.50;100.00;63355.56;5074688;28;20128;-84
2022/06/28 00:47:04;;;;;;;26.77;16.85;;;;;;;-141.50;100.00;63355.56;5057844;28;20167;-84
2022/06/28 00:49:31;;;;;;;28.05;17.10;;;;;;;-141.50;100.00;63355.56;5057489;28;20052;-82
2022/06/28 00:52:02;;;;;;;30.25;16.95;;;;;;;-141.50;100.00;63355.56;5075468;28;20087;-85
2022/06/28 00:54:29;;;;;;;26.83;17.45;;;;;;;-141.50;100.00;63355.56;5078290;28;20052;-85
2022/06/28 00:56:56;;;;;;;32.53;18.88;;;;;;;-141.50;100.00;63355.56;5079101;28;20192;-83
2022/06/28 00:59:25;;;;;;;31.08;20.20;;;;;;;-141.50;100.00;63355.56;5077531;28;20661;-81
2022/06/28 01:01:52;;;;;;;28.30;18.70;;;;;;;-141.50;100.00;63355.56;5080490;28;20506;-84
2022/06/28 01:04:22;;;;;;;32.55;20.60;;;;;;;-141.50;100.00;63355.56;5079714;28;20048;-84
2022/06/28 01:06:48;;;;;;;33.25;21.05;;;;;;;-141.50;100.00;63355.56;5082659;28;20048;-81
2022/06/28 01:09:15;;;;;;;35.25;21.90;;;;;;;-141.50;100.00;63355.56;5084140;28;20055;-84
2022/06/28 01:11:41;;;;;;;39.65;22.90;;;;;;;-141.50;100.00;63355.56;5083505;28;20083;-84
2022/06/28 01:14:08;;;;;;;43.40;25.17;;;;;;;-141.50;100.00;63355.56;5082976;28;20084;-84
2022/06/28 01:16:37;;;;;;;43.28;25.13;;;;;;;-141.50;100.00;63355.56;5079731;28;20052;-86
2022/06/28 01:19:07;;;;;;;41.45;24.92;;;;;;;-141.50;100.00;63355.56;5090117;28;20102;-84
2022/06/28 01:21:36;;;;;;;47.15;27.15;;;;;;;-141.50;100.00;63355.56;5061654;28;20080;-88
2022/06/28 01:24:04;;;;;;;41.90;24.83;;;;;;;-141.50;100.00;63355.56;5076870;28;20499;-84
2022/06/28 01:26:31;;;;;;;47.53;27.60;;;;;;;-141.50;100.00;63355.56;5059841;28;20076;-86
2022/06/28 01:28:58;;;;;;;57.75;30.77;;;;;;;-141.50;100.00;63355.56;5053570;28;20080;-89
2022/06/28 01:31:25;;;;;;;70.28;37.78;;;;;;;-141.50;100.00;63355.56;5072030;28;20072;-86
2022/06/28 01:33:53;;;;;;;86.25;45.53;;;;;;;-141.50;100.00;63355.56;5072116;28;20505;-85
2022/06/28 01:36:22;;;;;;;87.50;47.03;;;;;;;-141.50;100.00;63355.56;5056199;28;20398;-85
2022/06/28 01:38:49;;;;;;;99.10;48.88;;;;;;;-141.50;100.00;63355.56;5073950;28;20644;-86
2022/06/28 01:41:33;;;;;;;93.78;47.08;;;;;;;-141.50;100.00;63355.56;5074137;28;20501;-84
2022/06/28 01:44:03;;;;;;;101.05;50.20;;;;;;;-141.50;100.00;63355.56;5077125;28;20098;-86
2022/06/28 01:46:31;;;;;;;100.97;49.03;;;;;;;-141.50;100.00;63355.56;5060223;28;20072;-86
2022/06/28 01:48:57;;;;;;;102.05;49.15;;;;;;;-141.50;100.00;63355.56;5060634;28;20151;-83
2022/06/28 01:51:24;;;;;;;109.75;51.42;;;;;;;-141.50;100.00;63355.56;5060699;28;20052;-84
2022/06/28 01:53:51;;;;;;;104.65;50.35;;;;;;;-141.50;100.00;63355.56;5078238;28;20151;-86
2022/06/28 01:56:18;;;;;;;106.88;51.83;;;;;;;-141.50;100.00;63355.56;5079093;28;20087;-84
2022/06/28 01:58:45;;;;;;;111.82;52.03;;;;;;;-141.50;100.00;63355.56;5081041;28;20049;-81
2022/06/28 02:01:12;;;;;;;107.85;50.38;;;;;;;-141.50;100.00;63355.56;5067585;28;20048;-83
2022/06/28 02:03:40;;;;;;;111.22;52.38;;;;;;;-141.50;100.00;63355.56;5083338;28;20357;-87
2022/06/28 02:06:08;;;;;;;104.43;49.75;;;;;;;-141.50;100.00;63355.56;5084818;28;20072;-86
2022/06/28 02:08:35;;;;;;;109.45;51.45;;;;;;;-141.50;100.00;63355.56;5089373;28;20078;-80
2022/06/28 02:11:03;;;;;;;103.75;47.15;;;;;;;-141.50;100.00;63355.56;5083238;28;20044;-85
2022/06/28 02:13:30;;;;;;;115.55;50.35;;;;;;;-141.50;100.00;63355.56;5071232;28;20127;-86
2022/06/28 02:15:57;;;;;;;100.68;46.50;;;;;;;-141.50;100.00;63355.56;5090712;28;20531;-84
2022/06/28 02:18:23;;;;;;;119.90;50.97;;;;;;;-141.50;100.00;63355.56;5071474;28;20238;-87
2022/06/28 02:20:50;;;;;;;103.63;45.55;;;;;;;-141.50;100.00;63355.56;5078446;28;20082;-85
2022/06/28 02:23:16;;;;;;;107.55;48.55;;;;;;;-141.50;100.00;63355.56;5093836;28;20040;-83
2022/06/28 02:25:43;;;;;;;106.15;46.90;;;;;;;-141.50;100.00;63355.56;5092346;28;20032;-84
2022/06/28 02:28:09;;;;;;;90.20;41.45;;;;;;;-141.50;100.00;63355.56;5093186;28;20074;-85
2022/06/28 02:30:36;;;;;;;86.93;41.28;;;;;;;-141.50;100.00;63355.56;5089241;28;20040;-84
2022/06/28 02:33:03;;;;;;;94.50;41.67;;;;;;;-141.50;100.00;63355.56;5089666;28;20052;-86
2022/06/28 02:41:14;;;;;;;79.47;37.40;;;;;;;-141.50;100.00;63355.56;5080718;28;20053;-85
2022/06/28 02:43:41;;;;;;;79.00;36.15;;;;;;;-141.50;100.00;63355.56;5072963;28;20044;-85
2022/06/28 02:46:07;;;;;;;82.93;37.25;;;;;;;-141.50;100.00;63355.56;5090787;28;20056;-84
2022/06/28 02:48:34;;;;;;;80.10;36.22;;;;;;;-141.50;100.00;63355.56;5097150;28;20076;-85
2022/06/28 02:51:00;;;;;;;75.88;34.20;;;;;;;-141.50;100.00;63355.56;5097057;28;20075;-83
2022/06/28 02:53:27;;;;;;;75.43;35.35;;;;;;;-141.50;100.00;63355.56;5092906;28;20072;-83
2022/06/28 02:55:54;;;;;;;78.03;35.92;;;;;;;-141.50;100.00;63355.56;5086127;28;20072;-87
2022/06/28 02:58:20;;;;;;;82.45;37.88;;;;;;;-141.50;100.00;63355.56;5084243;28;20108;-86
2022/06/28 03:00:47;;;;;;;84.22;37.90;;;;;;;-141.50;100.00;63355.56;5081298;28;20060;-86
2022/06/28 03:03:14;;;;;;;78.93;37.67;;;;;;;-141.50;100.00;63355.56;5081475;28;20140;-87
2022/06/28 03:05:41;;;;;;;85.03;37.20;;;;;;;-141.50;100.00;63355.56;5063326;28;20088;-87
2022/06/28 03:08:11;;;;;;;83.80;37.25;;;;;;;-141.50;100.00;63355.56;5062011;28;20478;-86
2022/06/28 03:10:38;;;;;;;90.38;40.20;;;;;;;-141.50;100.00;63355.56;5077831;28;20048;-88
2022/06/28 03:13:05;;;;;;;79.13;36.20;;;;;;;-141.50;100.00;63355.56;5073861;28;20056;-87
2022/06/28 03:15:32;;;;;;;80.03;36.83;;;;;;;-141.50;100.00;63355.56;5056957;28;20075;-85
2022/06/28 03:17:59;;;;;;;89.18;37.97;;;;;;;-141.50;100.00;63355.56;5058929;28;20056;-85
2022/06/28 03:20:28;;;;;;;70.97;35.55;;;;;;;-141.50;100.00;63355.56;5073387;28;20060;-86
2022/06/28 03:22:55;;;;;;;79.05;36.35;;;;;;;-141.50;100.00;63355.56;5057314;28;20049;-85
2022/06/28 03:25:22;;;;;;;78.45;35.60;;;;;;;-141.50;100.00;63355.56;5057140;28;20398;-83
2022/06/28 03:27:49;;;;;;;81.15;37.03;;;;;;;-141.50;100.00;63355.56;5061404;28;20060;-85
2022/06/28 03:30:15;;;;;;;78.10;35.58;;;;;;;-141.50;100.00;63355.56;5066661;28;20056;-83
2022/06/28 03:32:43;;;;;;;83.32;37.63;;;;;;;-141.50;100.00;63355.56;5070145;28;20495;-87
2022/06/28 03:35:12;;;;;;;72.40;34.83;;;;;;;-141.50;100.00;63355.56;5051734;28;20107;-86
2022/06/28 03:37:39;;;;;;;74.65;34.55;;;;;;;-141.50;100.00;63355.56;5052307;28;20084;-85
2022/06/28 03:40:07;;;;;;;77.03;36.60;;;;;;;-141.50;100.00;63355.56;5056039;28;20080;-85
2022/06/28 03:42:34;;;;;;;80.07;36.00;;;;;;;-141.50;100.00;63355.56;5053306;28;20497;-85
2022/06/28 03:45:00;;;;;;;66.85;33.47;;;;;;;-141.50;100.00;63355.56;5057036;28;20117;-84
2022/06/28 03:47:27;;;;;;;70.72;35.10;;;;;;;-141.50;100.00;63355.56;5055698;28;20136;-84
2022/06/28 03:49:53;;;;;;;73.47;34.97;;;;;;;-141.50;100.00;63355.56;5057879;28;20080;-83
2022/06/28 03:52:28;;;;;;;70.63;33.90;;;;;;;-141.50;100.00;63355.56;5055592;28;20056;-85
2022/06/28 03:54:57;;;;;;;67.47;33.35;;;;;;;-141.50;100.00;63355.56;5056606;28;20064;-83
2022/06/28 03:57:25;;;;;;;72.70;35.03;;;;;;;-141.50;100.00;63355.56;5055580;28;20044;-83
2022/06/28 03:59:52;;;;;;;68.53;34.90;;;;;;;-141.50;100.00;63355.56;5065981;28;20052;-84
2022/06/28 04:02:19;;;;;;;80.72;38.05;;;;;;;-141.50;100.00;63355.56;5060296;28;20041;-84
2022/06/28 04:04:45;;;;;;;77.10;37.78;;;;;;;-141.50;100.00;63355.56;5036892;28;20347;-85
2022/06/28 04:07:12;;;;;;;85.43;40.28;;;;;;;-141.50;100.00;63355.56;5035942;28;20108;-85
2022/06/28 04:09:39;;;;;;;84.53;41.42;;;;;;;-141.50;100.00;63355.56;5072129;28;20053;-84
2022/06/28 04:12:06;;;;;;;90.43;43.13;;;;;;;-141.50;100.00;63355.56;5079321;28;20040;-84
2022/06/28 04:14:33;;;;;;;89.25;41.58;;;;;;;-141.50;100.00;63355.56;5085948;28;20060;-84
2022/06/28 04:17:00;;;;;;;91.97;42.47;;;;;;;-141.50;100.00;63355.56;5071480;28;20051;-75
2022/06/28 04:19:26;;;;;;;86.00;41.47;;;;;;;-141.50;100.00;63355.56;5078055;28;20131;-74
2022/06/28 04:21:53;;;;;;;89.40;41.13;;;;;;;-141.50;100.00;63355.56;5051416;28;20132;-75
2022/06/28 04:24:19;;;;;;;84.97;42.97;;;;;;;-141.50;100.00;63355.56;5070714;28;20079;-75
2022/06/28 04:26:46;;;;;;;86.88;43.05;;;;;;;-141.50;100.00;63355.56;5035093;28;20088;-74
2022/06/28 04:29:12;;;;;;;90.88;41.97;;;;;;;-141.50;100.00;63355.56;5051125;28;20106;-75
2022/06/28 04:31:39;;;;;;;84.40;41.90;;;;;;;-141.50;100.00;63355.56;5031816;28;20044;-74
2022/06/28 04:34:05;;;;;;;80.25;41.75;;;;;;;-141.50;100.00;63355.56;5049278;28;20128;-77
2022/06/28 04:36:32;;;;;;;80.50;41.63;;;;;;;-141.50;100.00;63355.56;5048860;28;20443;-74
2022/06/28 04:38:59;;;;;;;87.18;43.20;;;;;;;-141.50;100.00;63355.56;5049703;28;20076;-74
2022/06/28 04:41:25;;;;;;;87.93;40.40;;;;;;;-141.50;100.00;63355.56;5049263;28;20124;-74
2022/06/28 04:43:53;;;;;;;77.50;39.15;;;;;;;-141.50;100.00;63355.56;5031787;28;20107;-75
2022/06/28 04:46:20;;;;;;;61.38;34.38;;;;;;;-141.50;100.00;63355.56;5048930;28;20471;-75
2022/06/28 04:48:48;;;;;;;57.47;32.85;;;;;;;-141.50;100.00;63355.56;5031655;28;20064;-75
2022/06/28 04:51:17;;;;;;;58.95;32.75;;;;;;;-141.50;100.00;63355.56;5051548;28;20512;-75
2022/06/28 04:53:45;;;;;;;58.55;33.95;;;;;;;-141.50;100.00;63355.56;5050519;28;20131;-75
2022/06/28 04:56:12;;;;;;;59.83;34.90;;;;;;;-141.50;100.00;63355.56;5051788;28;20113;-75
2022/06/28 04:58:39;;;;;;;69.50;37.03;;;;;;;-141.50;100.00;63355.56;5061662;28;20075;-74
2022/06/28 05:01:06;;;;;;;78.50;40.83;;;;;;;-141.50;100.00;63355.56;5031083;28;20049;-77
2022/06/28 05:03:38;;;;;;;74.95;41.55;;;;;;;-141.50;100.00;63355.56;5047616;28;20053;-75
2022/06/28 05:06:05;;;;;;;80.32;42.92;;;;;;;-141.50;100.00;63355.56;5047345;28;20441;-75
2022/06/28 05:08:32;;;;;;;73.13;40.65;;;;;;;-141.50;100.00;63355.56;5048327;28;20053;-75
2022/06/28 05:10:58;;;;;;;69.47;40.05;;;;;;;-141.50;100.00;63355.56;5049059;28;20083;-75
2022/06/28 05:13:25;;;;;;;60.45;36.42;;;;;;;-141.50;100.00;63355.56;5049252;28;20135;-76
2022/06/28 05:15:51;;;;;;;63.40;37.63;;;;;;;-141.50;100.00;63355.56;5030934;28;20102;-75
2022/06/28 05:18:18;;;;;;;70.65;37.08;;;;;;;-141.50;100.00;63355.56;5070677;28;20137;-84
2022/06/28 05:20:44;;;;;;;59.85;36.95;;;;;;;-141.50;100.00;63355.56;5058229;28;20087;-87
2022/06/28 05:23:11;;;;;;;63.10;36.05;;;;;;;-141.50;100.00;63355.56;5067089;28;20059;-83
2022/06/28 05:25:38;;;;;;;53.78;30.25;;;;;;;-141.50;100.00;63355.56;5091485;28;20036;-82
2022/06/28 05:28:04;;;;;;;53.80;27.38;;;;;;;-141.50;100.00;63355.56;5090139;28;20044;-83
2022/06/28 05:30:31;;;;;;;45.85;27.65;;;;;;;-141.50;100.00;63355.56;5080592;28;20084;-85
2022/06/28 05:32:57;;;;;;;45.08;25.98;;;;;;;-141.50;100.00;63355.56;5065281;28;20075;-84
2022/06/28 05:35:24;;;;;;;48.28;29.00;;;;;;;-141.50;100.00;63355.56;5063736;28;20070;-83
2022/06/28 05:37:50;;;;;;;45.58;27.17;;;;;;;-141.50;100.00;63355.56;5061339;28;20083;-87
2022/06/28 05:40:17;;;;;;;48.40;28.25;;;;;;;-141.50;100.00;63355.56;5058259;28;20072;-84
2022/06/28 05:42:43;;;;;;;51.35;27.13;;;;;;;-141.50;100.00;63355.56;5075839;28;20469;-84
2022/06/28 05:45:13;;;;;;;44.38;25.95;;;;;;;-141.50;100.00;63355.56;5059752;28;20100;-84
2022/06/28 05:47:40;;;;;;;42.92;25.23;;;;;;;-141.50;100.00;63355.56;5057953;28;20174;-87
2022/06/28 05:50:09;;;;;;;34.83;22.70;;;;;;;-141.50;100.00;63355.56;5057241;28;20052;-88
2022/06/28 05:52:36;;;;;;;36.85;21.88;;;;;;;-141.50;100.00;63355.56;5073517;28;20641;-86
2022/06/28 05:55:03;;;;;;;37.00;23.00;;;;;;;-141.50;100.00;63355.56;5075812;28;20057;-82
2022/06/28 05:57:30;;;;;;;33.90;22.05;;;;;;;-141.50;100.00;63355.56;5056355;28;20523;-85
2022/06/28 05:59:56;;;;;;;31.00;20.73;;;;;;;-141.50;100.00;63355.56;5055999;28;20120;-83
2022/06/28 06:02:23;;;;;;;32.83;21.35;;;;;;;-141.50;100.00;63355.56;5072014;28;20091;-80
2022/06/28 06:04:50;;;;;;;32.38;20.55;;;;;;;-141.50;100.00;63355.56;5055568;28;20052;-81
2022/06/28 06:07:17;;;;;;;31.48;19.98;;;;;;;-141.50;100.00;63355.56;5071522;28;20084;-80
2022/06/28 06:09:44;;;;;;;33.05;20.00;;;;;;;-141.50;100.00;63355.56;5059475;28;20045;-83
2022/06/28 06:12:10;;;;;;;37.83;20.52;;;;;;;-141.50;100.00;63355.56;5058387;28;20044;-85
2022/06/28 06:14:40;;;;;;;32.13;18.17;;;;;;;-141.50;100.00;63355.56;5074565;28;20044;-84
2022/06/28 06:17:07;;;;;;;35.70;18.35;;;;;;;-141.50;100.00;63355.56;5071720;28;20144;-82
2022/06/28 06:19:34;;;;;;;60.72;24.55;;;;;;;-141.50;100.00;63355.56;5084197;28;20536;-83
2022/06/28 06:22:00;;;;;;;21.55;12.35;;;;;;;-141.50;100.00;63355.56;5072519;28;20199;-84
2022/06/28 06:24:27;;;;;;;21.77;12.32;;;;;;;-141.50;100.00;63355.56;5072839;28;20114;-86
2022/06/28 06:26:53;;;;;;;21.75;12.70;;;;;;;-141.50;100.00;63355.56;5073016;28;20483;-78
2022/06/28 06:29:20;;;;;;;20.95;13.43;;;;;;;-141.50;100.00;63355.56;5068568;28;20048;-84
2022/06/28 06:31:46;;;;;;;26.27;14.07;;;;;;;-141.50;100.00;63355.56;5051622;28;20059;-82
2022/06/28 06:34:14;;;;;;;22.80;13.13;;;;;;;-141.50;100.00;63355.56;5072411;28;20099;-80
2022/06/28 06:36:44;;;;;;;14.95;10.20;;;;;;;-141.50;100.00;63355.56;5051094;28;20139;-81
2022/06/28 06:39:11;;;;;;;23.65;12.00;;;;;;;-141.50;100.00;63355.56;5051976;28;20437;-82
2022/06/28 06:41:38;;;;;;;19.20;11.50;;;;;;;-141.50;100.00;63355.56;5052718;28;20132;-84
2022/06/28 06:44:04;;;;;;;23.23;12.27;;;;;;;-141.50;100.00;63355.56;5071032;28;20485;-83
2022/06/28 06:46:31;;;;;;;18.58;11.93;;;;;;;-141.50;100.00;63355.56;5053627;28;20087;-81
2022/06/28 06:48:58;;;;;;;26.50;13.55;;;;;;;-141.50;100.00;63355.56;5077948;28;20063;-82
2022/06/28 06:51:24;;;;;;;19.20;12.40;;;;;;;-141.50;100.00;63355.56;5067055;28;20072;-83
2022/06/28 06:53:52;;;;;;;18.67;10.93;;;;;;;-141.50;100.00;63355.56;5063354;28;20048;-84
2022/06/28 06:56:18;;;;;;;19.42;11.25;;;;;;;-141.50;100.00;63355.56;5067441;28;20068;-83
2022/06/28 06:58:45;;;;;;;19.15;10.43;;;;;;;-141.50;100.00;63355.56;5085037;28;20043;-82
2022/06/28 07:01:11;;;;;;;15.02;8.07;;;;;;;-141.50;100.00;63355.56;5083360;28;20044;-82
2022/06/28 07:03:58;;;;;;;14.27;9.18;;;;;;;-141.50;100.00;63355.56;5082001;28;20055;-83
2022/06/28 07:06:25;;;;;;;9.60;6.00;;;;;;;-141.50;100.00;63355.56;5078675;28;20048;-82
2022/06/28 07:08:51;;;;;;;10.45;6.32;;;;;;;-141.50;100.00;63355.56;5055661;28;20091;-79
2022/06/28 07:11:18;;;;;;;12.10;5.68;;;;;;;-141.50;100.00;63355.56;5057837;28;20048;-83
2022/06/28 07:13:45;;;;;;;9.63;6.38;;;;;;;-141.50;100.00;63355.56;5055852;28;20052;-77
2022/06/28 07:16:11;;;;;;;9.88;6.22;;;;;;;-141.50;100.00;63355.56;5050671;28;20127;-77
2022/06/28 07:18:39;;;;;;;11.57;6.95;;;;;;;-141.50;100.00;63355.56;5078285;28;20049;-80
2022/06/28 07:21:05;;;;;;;14.35;6.07;;;;;;;-141.50;100.00;63355.56;5052491;28;20092;-81
2022/06/28 07:23:32;;;;;;;17.88;6.22;;;;;;;-141.50;100.00;63355.56;5071852;28;20044;-83
2022/06/28 07:25:58;;;;;;;9.32;6.18;;;;;;;-141.50;100.00;63355.56;5055136;28;20080;-84
2022/06/28 07:28:25;;;;;;;9.38;6.75;;;;;;;-141.50;100.00;63355.56;5073336;28;20084;-82
2022/06/28 07:30:51;;;;;;;10.63;6.07;;;;;;;-141.50;100.00;63355.56;5073911;28;20108;-79
2022/06/28 07:33:18;;;;;;;13.77;6.15;;;;;;;-141.50;100.00;63355.56;5078499;28;20049;-81
2022/06/28 07:35:45;;;;;;;10.85;6.53;;;;;;;-141.50;100.00;63355.56;5059178;28;20505;-84
2022/06/28 07:38:13;;;;;;;13.40;6.45;;;;;;;-141.50;100.00;63355.56;5077250;28;20082;-81
2022/06/28 07:40:39;;;;;;;11.85;6.57;;;;;;;-141.50;100.00;63355.56;5077418;28;20048;-82
2022/06/28 07:43:06;;;;;;;11.88;6.57;;;;;;;-141.50;100.00;63355.56;5059752;28;20425;-83
2022/06/28 07:45:36;;;;;;;13.00;6.05;;;;;;;-141.50;100.00;63355.56;5077389;28;20055;-82
2022/06/28 07:48:03;;;;;;;13.70;6.68;;;;;;;-141.50;100.00;63355.56;5059362;28;20098;-83
2022/06/28 07:53:16;;;;;;;15.23;5.72;;;;;;;-141.50;100.00;63355.56;5079264;28;20127;-84
2022/06/28 07:55:43;;;;;;;13.02;5.65;;;;;;;-141.50;100.00;63355.56;5078249;28;20102;-82
2022/06/28 07:58:09;;;;;;;11.93;5.43;;;;;;;-141.50;100.00;63355.56;5076254;28;20072;-81
2022/06/28 08:00:36;;;;;;;14.55;5.85;;;;;;;-141.50;100.00;63355.56;5073687;28;20052;-82
2022/06/28 08:03:03;;;;;;;10.63;5.25;;;;;;;-141.50;100.00;63355.56;5072018;28;20496;-80
2022/06/28 08:05:29;;;;;;;11.30;5.75;;;;;;;-141.50;100.00;63355.56;5072972;28;20087;-80
2022/06/28 08:07:59;;;;;;;11.80;5.25;;;;;;;-141.50;100.00;63355.56;5072878;28;20080;-82
2022/06/28 08:10:25;;;;;;;8.95;5.50;;;;;;;-141.50;100.00;63355.56;5073484;28;20143;-81
2022/06/28 08:12:52;;;;;;;8.77;4.97;;;;;;;-141.50;100.00;63355.56;5077973;28;20283;-81
2022/06/28 08:15:18;;;;;;;7.20;5.30;;;;;;;-141.50;100.00;63355.56;5059156;28;20155;-82
2022/06/28 08:17:45;;;;;;;10.70;6.05;;;;;;;-141.50;100.00;63355.56;5082040;28;20127;-82
2022/06/28 08:20:12;;;;;;;10.70;5.93;;;;;;;-141.50;100.00;63355.56;5070193;28;20045;-81
2022/06/28 08:22:38;;;;;;;10.43;5.60;;;;;;;-141.50;100.00;63355.56;5068461;28;20048;-83
2022/06/28 08:25:06;;;;;;;12.18;5.90;;;;;;;-141.50;100.00;63355.56;5052945;28;20071;-81
2022/06/28 08:27:33;;;;;;;10.45;6.18;;;;;;;-141.50;100.00;63355.56;5070323;28;20052;-81
2022/06/28 08:29:59;;;;;;;10.32;5.97;;;;;;;-141.50;100.00;63355.56;5076167;28;20104;-81
2022/06/28 08:32:26;;;;;;;13.10;6.00;;;;;;;-141.50;100.00;63355.56;5060382;28;20132;-82
2022/06/28 08:34:55;;;;;;;9.73;5.05;;;;;;;-141.50;100.00;63355.56;5058026;28;20063;-83
2022/06/28 08:37:22;;;;;;;11.73;5.47;;;;;;;-141.50;100.00;63355.56;5075636;28;20124;-83
2022/06/28 08:39:49;;;;;;;11.23;5.68;;;;;;;-141.50;100.00;63355.56;5058628;28;20113;-80
2022/06/28 08:42:25;;;;;;;14.18;8.95;;;;;;;-141.50;100.00;63355.56;5076105;28;20762;-80
2022/06/28 08:44:52;;;;;;;11.57;8.30;;;;;;;-141.50;100.00;63355.56;5084384;28;20052;-77
2022/06/28 08:47:21;;;;;;;10.43;7.53;;;;;;;-141.50;100.00;63355.56;5068681;28;20523;-80
2022/06/28 08:49:56;;;;;;;10.63;7.40;;;;;;;-141.50;100.00;63355.56;5087066;28;20621;-81
2022/06/28 08:52:24;;;;;;;13.40;8.18;;;;;;;-141.50;100.00;63355.56;5082959;28;20067;-81
2022/06/28 08:54:52;;;;;;;14.48;8.93;;;;;;;-141.50;100.00;63355.56;5058550;28;20053;-83
2022/06/28 08:57:20;;;;;;;14.23;7.90;;;;;;;-141.50;100.00;63355.56;5077808;28;20048;-82
2022/06/28 08:59:48;;;;;;;11.60;7.95;;;;;;;-141.50;100.00;63355.56;5078061;28;20048;-81
2022/06/28 09:02:16;;;;;;;11.23;8.15;;;;;;;-141.50;100.00;63355.56;5060581;28;20049;-82
2022/06/28 09:04:48;;;;;;;12.80;7.40;;;;;;;-141.50;100.00;63355.56;5076697;28;20464;-83
2022/06/28 09:07:15;;;;;;;11.35;7.60;;;;;;;-141.50;100.00;63355.56;5076353;28;20087;-80
2022/06/28 09:09:41;;;;;;;14.07;10.15;;;;;;;-141.50;100.00;63355.56;5075934;28;20670;-83
2022/06/28 09:12:09;;;;;;;14.60;10.73;;;;;;;-141.50;100.00;63355.56;5076965;28;20127;-80
2022/06/28 09:14:35;;;;;;;18.67;11.18;;;;;;;-141.50;100.00;63355.56;5077468;28;20508;-82
2022/06/28 09:17:21;;;;;;;14.10;9.98;;;;;;;-141.50;100.00;63355.56;5075660;28;20063;-82
2022/06/28 09:19:52;;;;;;;13.20;8.60;;;;;;;-141.50;100.00;63355.56;5050429;28;20128;-84
2022/06/28 09:22:32;;;;;;;11.60;7.60;;;;;;;-141.50;100.00;63355.56;5059143;28;20127;-81
2022/06/28 09:25:00;;;;;;;9.35;6.78;;;;;;;-141.50;100.00;63355.56;5082462;28;20154;-82
2022/06/28 09:27:36;;;;;;;8.30;5.35;;;;;;;-141.50;100.00;63355.56;5059297;28;20076;-83
2022/06/28 09:30:05;;;;;;;8.85;6.80;;;;;;;-141.50;100.00;63355.56;5087009;28;20071;-79
2022/06/28 09:32:33;;;;;;;16.58;8.38;;;;;;;-141.50;100.00;63355.56;5081186;28;20143;-83
2022/06/28 09:35:10;;;;;;;11.07;8.07;;;;;;;-141.50;100.00;63355.56;5070530;28;20052;-83
2022/06/28 09:37:50;;;;;;;14.52;10.20;;;;;;;-141.50;100.00;63355.56;5070667;28;20390;-81
2022/06/28 09:40:19;;;;;;;12.57;8.57;;;;;;;-141.50;100.00;63355.56;5072471;28;20110;-79
2022/06/28 09:43:03;;;;;;;8.48;5.60;;;;;;;-141.50;100.00;63355.56;5056446;28;20057;-81
2022/06/28 09:45:30;;;;;;;8.88;4.88;;;;;;;-141.50;100.00;63355.56;5074745;28;20622;-83
2022/06/28 09:47:57;;;;;;;6.78;5.13;;;;;;;-141.50;100.00;63355.56;5074226;28;20052;-83
2022/06/28 09:50:35;;;;;;;7.30;5.33;;;;;;;-141.50;100.00;63355.56;5074800;28;20109;-82
2022/06/28 09:53:03;;;;;;;9.85;6.18;;;;;;;-141.50;100.00;63355.56;5074223;28;20124;-82
2022/06/28 09:55:36;;;;;;;6.82;5.47;;;;;;;-141.50;100.00;63355.56;5057579;28;20053;-80
2022/06/28 09:58:03;;;;;;;7.63;5.13;;;;;;;-141.50;100.00;63355.56;5074517;28;20484;-83
2022/06/28 10:00:30;;;;;;;6.57;5.50;;;;;;;-141.50;100.00;63355.56;5073707;28;20049;-81
2022/06/28 10:02:58;;;;;;;8.25;6.20;;;;;;;-141.50;100.00;63355.56;5074797;28;20127;-84
2022/06/28 10:05:25;;;;;;;8.68;5.82;;;;;;;-141.50;100.00;63355.56;5075598;28;20078;-81
2022/06/28 10:07:52;;;;;;;7.63;5.65;;;;;;;-141.50;100.00;63355.56;5073584;28;20049;-81
2022/06/28 10:10:22;;;;;;;9.63;4.60;;;;;;;-141.50;100.00;63355.56;5057627;28;20048;-81
2022/06/28 10:15:36;;;;;;;;;;;;;;;-141.50;100.00;63355.56;5075401;28;20064;-82
2022/06/28 10:18:20;;;;;;;7.88;5.90;;;;;;;-141.50;100.00;63355.56;5065931;28;19920;-78
2022/06/28 10:20:48;;;;;;;7.47;5.45;;;;;;;-141.50;100.00;63355.56;5072097;28;20048;-79
2022/06/28 10:23:40;;;;;;;7.95;5.68;;;;;;;-141.50;100.00;63355.56;5068789;28;20080;-82
2022/06/28 10:26:17;;;;;;;8.15;5.10;;;;;;;-141.50;100.00;63355.56;5053952;28;20054;-82
2022/06/28 10:28:43;;;;;;;9.65;4.90;;;;;;;-141.50;100.00;63355.56;5071182;28;20091;-81
2022/06/28 10:31:25;;;;;;;8.05;4.80;;;;;;;-141.50;100.00;63355.56;5071873;28;20092;-80
2022/06/28 10:34:17;;;;;;;6.20;4.20;;;;;;;-141.50;100.00;63355.56;5073048;28;20052;-83
2022/06/28 10:36:45;;;;;;;7.35;4.38;;;;;;;-141.50;100.00;63355.56;5073366;28;20052;-82
2022/06/28 10:39:13;;;;;;;5.68;4.05;;;;;;;-141.50;100.00;63355.56;5081144;28;20087;-77
2022/06/28 10:41:42;;;;;;;5.03;3.75;;;;;;;-141.50;100.00;63355.56;5062399;28;20076;-77
2022/06/28 10:44:13;;;;;;;8.82;3.30;;;;;;;-141.50;100.00;63355.56;5068488;28;20087;-80
2022/06/28 10:46:41;;;;;;;5.07;3.22;;;;;;;-141.50;100.00;63355.56;5050965;28;20582;-79
2022/06/28 10:49:10;;;;;;;6.03;3.20;;;;;;;-141.50;100.00;63355.56;5068740;28;20103;-81
2022/06/28 10:51:41;;;;;;;5.72;3.20;;;;;;;-141.50;100.00;63355.56;5069026;28;20499;-80
2022/06/28 10:54:10;;;;;;;6.53;3.10;;;;;;;-141.50;100.00;63355.56;5051607;28;20090;-81
2022/06/28 10:56:36;;;;;;;5.90;3.22;;;;;;;-141.50;100.00;63355.56;5071171;28;20452;-81
2022/06/28 10:59:12;;;;;;;5.03;3.28;;;;;;;-141.50;100.00;63355.56;5076926;28;20045;-81
2022/06/28 11:01:38;;;;;;;5.43;3.28;;;;;;;-141.50;100.00;63355.56;5080183;28;20052;-82
2022/06/28 11:04:13;;;;;;;8.82;3.75;;;;;;;-141.50;100.00;63355.56;5057211;28;20041;-83
2022/06/28 11:06:44;;;;;;;4.57;3.30;;;;;;;-141.50;100.00;63355.56;5079813;28;20087;-81
2022/06/28 11:09:30;;;;;;;3.58;2.92;;;;;;;-141.50;100.00;63355.56;5088643;28;20060;-81
2022/06/28 11:12:05;;;;;;;5.22;3.05;;;;;;;-141.50;100.00;63355.56;5084147;28;20436;-80
2022/06/28 11:14:56;;;;;;;4.85;2.80;;;;;;;-141.50;100.00;63355.56;5082670;28;20457;-82